sensor_id;sensor_type;location;lat;lon;timestamp;P1;durP1;ratioP1;P2;durP2;ratioP2
11008;SDS011;5557;51.670;7.788;2022-12-29T00:01:43;0.93;;;0.83;;
11008;SDS011;5557;51.670;7.788;2022-12-29T00:04:11;5.23;;;1.60;;
11008;SDS011;5557;51.670;7.788;2022-12-29T00:06:41;1.43;;;0.90;;
11008;SDS011;5557;51.670;7.788;2022-12-29T00:09:10;0.80;;;0.70;;
11008;SDS011;5557;51.670;7.788;2022-12-29T00:11:38;1.03;;;0.93;;
11008;SDS011;5557;51.670;7.788;2022-12-29T00:14:05;0.90;;;0.80;;
11008;SDS011;5557;51.670;7.788;2022-12-29T00:16:53;1.33;;;0.83;;
11008;SDS011;5557;51.670;7.788;2022-12-29T00:19:20;0.70;;;0.50;;
11008;SDS011;5557;51.670;7.788;2022-12-29T00:22:05;0.80;;;0.80;;
11008;SDS011;5557;51.670;7.788;2022-12-29T00:24:51;0.70;;;0.60;;
11008;SDS011;5557;51.670;7.788;2022-12-29T00:27:37;0.70;;;0.57;;
11008;SDS011;5557;51.670;7.788;2022-12-29T00:30:30;0.90;;;0.83;;
11008;SDS011;5557;51.670;7.788;2022-12-29T00:33:19;0.70;;;0.60;;
11008;SDS011;5557;51.670;7.788;2022-12-29T00:36:11;0.70;;;0.50;;
11008;SDS011;5557;51.670;7.788;2022-12-29T00:38:49;1.10;;;0.60;;
11008;SDS011;5557;51.670;7.788;2022-12-29T00:41:39;0.73;;;0.60;;
11008;SDS011;5557;51.670;7.788;2022-12-29T00:44:25;0.70;;;0.50;;
11008;SDS011;5557;51.670;7.788;2022-12-29T00:46:52;1.00;;;0.70;;
11008;SDS011;5557;51.670;7.788;2022-12-29T00:49:20;0.70;;;0.70;;
11008;SDS011;5557;51.670;7.788;2022-12-29T00:52:00;0.90;;;0.57;;
11008;SDS011;5557;51.670;7.788;2022-12-29T00:54:36;0.77;;;0.50;;
11008;SDS011;5557;51.670;7.788;2022-12-29T00:57:05;0.70;;;0.50;;
11008;SDS011;5557;51.670;7.788;2022-12-29T00:59:37;0.67;;;0.40;;
11008;SDS011;5557;51.670;7.788;2022-12-29T01:02:07;1.83;;;0.50;;
11008;SDS011;5557;51.670;7.788;2022-12-29T01:04:36;0.80;;;0.50;;
11008;SDS011;5557;51.670;7.788;2022-12-29T01:07:03;0.80;;;0.50;;
11008;SDS011;5557;51.670;7.788;2022-12-29T01:09:31;0.80;;;0.60;;
11008;SDS011;5557;51.670;7.788;2022-12-29T01:12:17;0.90;;;0.50;;
11008;SDS011;5557;51.670;7.788;2022-12-29T01:15:04;0.80;;;0.70;;
11008;SDS011;5557;51.670;7.788;2022-12-29T01:17:32;0.70;;;0.40;;
11008;SDS011;5557;51.670;7.788;2022-12-29T01:19:59;0.70;;;0.50;;
11008;SDS011;5557;51.670;7.788;2022-12-29T01:22:27;0.70;;;0.50;;
11008;SDS011;5557;51.670;7.788;2022-12-29T01:24:54;1.23;;;0.43;;
11008;SDS011;5557;51.670;7.788;2022-12-29T01:27:21;0.67;;;0.43;;
11008;SDS011;5557;51.670;7.788;2022-12-29T01:29:48;0.70;;;0.50;;
11008;SDS011;5557;51.670;7.788;2022-12-29T01:32:15;1.10;;;0.50;;
11008;SDS011;5557;51.670;7.788;2022-12-29T01:34:43;1.00;;;0.40;;
11008;SDS011;5557;51.670;7.788;2022-12-29T01:37:10;0.70;;;0.50;;
11008;SDS011;5557;51.670;7.788;2022-12-29T01:39:39;0.83;;;0.67;;
11008;SDS011;5557;51.670;7.788;2022-12-29T01:42:08;0.70;;;0.50;;
11008;SDS011;5557;51.670;7.788;2022-12-29T01:47:37;0.63;;;0.40;;
11008;SDS011;5557;51.670;7.788;2022-12-29T01:50:09;0.70;;;0.40;;
11008;SDS011;5557;51.670;7.788;2022-12-29T01:52:45;0.60;;;0.40;;
11008;SDS011;5557;51.670;7.788;2022-12-29T01:55:26;0.60;;;0.40;;
11008;SDS011;5557;51.670;7.788;2022-12-29T01:57:55;0.67;;;0.40;;
11008;SDS011;5557;51.670;7.788;2022-12-29T02:00:29;0.77;;;0.30;;
11008;SDS011;5557;51.670;7.788;2022-12-29T02:02:56;0.60;;;0.40;;
11008;SDS011;5557;51.670;7.788;2022-12-29T02:05:26;0.90;;;0.40;;
11008;SDS011;5557;51.670;7.788;2022-12-29T02:07:54;2.30;;;0.70;;
11008;SDS011;5557;51.670;7.788;2022-12-29T02:10:22;0.70;;;0.40;;
11008;SDS011;5557;51.670;7.788;2022-12-29T02:12:52;0.70;;;0.40;;
11008;SDS011;5557;51.670;7.788;2022-12-29T02:15:21;0.70;;;0.60;;
11008;SDS011;5557;51.670;7.788;2022-12-29T02:21:40;0.67;;;0.40;;
11008;SDS011;5557;51.670;7.788;2022-12-29T02:24:30;0.70;;;0.40;;
11008;SDS011;5557;51.670;7.788;2022-12-29T02:30:44;0.70;;;0.40;;
11008;SDS011;5557;51.670;7.788;2022-12-29T02:45:52;0.60;;;0.30;;
11008;SDS011;5557;51.670;7.788;2022-12-29T02:48:32;0.60;;;0.40;;
11008;SDS011;5557;51.670;7.788;2022-12-29T02:51:10;0.80;;;0.57;;
11008;SDS011;5557;51.670;7.788;2022-12-29T02:53:43;0.60;;;0.40;;
11008;SDS011;5557;51.670;7.788;2022-12-29T02:56:30;0.70;;;0.37;;
11008;SDS011;5557;51.670;7.788;2022-12-29T02:58:57;0.70;;;0.40;;
11008;SDS011;5557;51.670;7.788;2022-12-29T03:04:50;1.00;;;0.90;;
11008;SDS011;5557;51.670;7.788;2022-12-29T03:11:10;0.70;;;0.40;;
11008;SDS011;5557;51.670;7.788;2022-12-29T03:14:02;0.70;;;0.47;;
11008;SDS011;5557;51.670;7.788;2022-12-29T03:17:10;0.70;;;0.40;;
11008;SDS011;5557;51.670;7.788;2022-12-29T03:20:06;0.70;;;0.40;;
11008;SDS011;5557;51.670;7.788;2022-12-29T03:22:38;0.70;;;0.47;;
11008;SDS011;5557;51.670;7.788;2022-12-29T03:25:30;0.73;;;0.40;;
11008;SDS011;5557;51.670;7.788;2022-12-29T03:27:58;0.67;;;0.40;;
11008;SDS011;5557;51.670;7.788;2022-12-29T03:30:32;0.60;;;0.40;;
11008;SDS011;5557;51.670;7.788;2022-12-29T03:33:03;2.20;;;0.40;;
11008;SDS011;5557;51.670;7.788;2022-12-29T03:35:34;0.70;;;0.50;;
11008;SDS011;5557;51.670;7.788;2022-12-29T03:38:24;1.37;;;0.73;;
11008;SDS011;5557;51.670;7.788;2022-12-29T03:41:14;0.70;;;0.40;;
11008;SDS011;5557;51.670;7.788;2022-12-29T03:43:46;0.70;;;0.40;;
11008;SDS011;5557;51.670;7.788;2022-12-29T03:46:13;0.93;;;0.50;;
11008;SDS011;5557;51.670;7.788;2022-12-29T03:48:40;1.17;;;0.40;;
11008;SDS011;5557;51.670;7.788;2022-12-29T03:51:07;0.83;;;0.47;;
11008;SDS011;5557;51.670;7.788;2022-12-29T03:53:34;3.30;;;0.50;;
11008;SDS011;5557;51.670;7.788;2022-12-29T03:56:01;0.77;;;0.40;;
11008;SDS011;5557;51.670;7.788;2022-12-29T03:58:28;0.70;;;0.40;;
11008;SDS011;5557;51.670;7.788;2022-12-29T04:00:56;0.67;;;0.47;;
11008;SDS011;5557;51.670;7.788;2022-12-29T04:03:23;0.80;;;0.50;;
11008;SDS011;5557;51.670;7.788;2022-12-29T04:05:50;1.00;;;0.70;;
11008;SDS011;5557;51.670;7.788;2022-12-29T04:08:17;1.53;;;0.50;;
11008;SDS011;5557;51.670;7.788;2022-12-29T04:10:44;1.37;;;0.60;;
11008;SDS011;5557;51.670;7.788;2022-12-29T04:13:11;0.77;;;0.53;;
11008;SDS011;5557;51.670;7.788;2022-12-29T04:15:38;2.50;;;0.60;;
11008;SDS011;5557;51.670;7.788;2022-12-29T04:18:05;0.73;;;0.60;;
11008;SDS011;5557;51.670;7.788;2022-12-29T04:20:32;2.60;;;0.83;;
11008;SDS011;5557;51.670;7.788;2022-12-29T04:23:17;1.30;;;0.50;;
11008;SDS011;5557;51.670;7.788;2022-12-29T04:25:45;2.00;;;0.67;;
11008;SDS011;5557;51.670;7.788;2022-12-29T04:28:14;1.67;;;0.60;;
11008;SDS011;5557;51.670;7.788;2022-12-29T04:30:44;0.70;;;0.50;;
11008;SDS011;5557;51.670;7.788;2022-12-29T04:33:12;2.60;;;0.53;;
11008;SDS011;5557;51.670;7.788;2022-12-29T04:35:39;1.00;;;0.63;;
11008;SDS011;5557;51.670;7.788;2022-12-29T04:38:06;0.80;;;0.50;;
11008;SDS011;5557;51.670;7.788;2022-12-29T04:40:33;3.50;;;0.50;;
11008;SDS011;5557;51.670;7.788;2022-12-29T04:43:00;1.67;;;0.40;;
11008;SDS011;5557;51.670;7.788;2022-12-29T04:45:27;0.90;;;0.40;;
11008;SDS011;5557;51.670;7.788;2022-12-29T04:47:54;0.70;;;0.47;;
11008;SDS011;5557;51.670;7.788;2022-12-29T04:50:21;1.00;;;0.60;;
11008;SDS011;5557;51.670;7.788;2022-12-29T04:52:49;2.60;;;0.57;;
11008;SDS011;5557;51.670;7.788;2022-12-29T04:55:16;1.00;;;0.50;;
11008;SDS011;5557;51.670;7.788;2022-12-29T04:57:43;0.60;;;0.40;;
11008;SDS011;5557;51.670;7.788;2022-12-29T05:00:11;2.07;;;0.60;;
11008;SDS011;5557;51.670;7.788;2022-12-29T05:02:38;0.70;;;0.50;;
11008;SDS011;5557;51.670;7.788;2022-12-29T05:05:06;0.70;;;0.40;;
11008;SDS011;5557;51.670;7.788;2022-12-29T05:07:33;0.83;;;0.40;;
11008;SDS011;5557;51.670;7.788;2022-12-29T05:10:00;0.60;;;0.40;;
11008;SDS011;5557;51.670;7.788;2022-12-29T05:12:31;2.30;;;0.50;;
11008;SDS011;5557;51.670;7.788;2022-12-29T05:14:59;0.70;;;0.40;;
11008;SDS011;5557;51.670;7.788;2022-12-29T05:17:26;0.70;;;0.40;;
11008;SDS011;5557;51.670;7.788;2022-12-29T05:19:53;0.70;;;0.50;;
11008;SDS011;5557;51.670;7.788;2022-12-29T05:22:20;1.63;;;0.60;;
11008;SDS011;5557;51.670;7.788;2022-12-29T05:24:47;0.87;;;0.50;;
11008;SDS011;5557;51.670;7.788;2022-12-29T05:27:14;1.00;;;0.50;;
11008;SDS011;5557;51.670;7.788;2022-12-29T05:29:41;0.80;;;0.60;;
11008;SDS011;5557;51.670;7.788;2022-12-29T05:32:08;2.03;;;0.50;;
11008;SDS011;5557;51.670;7.788;2022-12-29T05:34:35;1.07;;;0.40;;
11008;SDS011;5557;51.670;7.788;2022-12-29T05:37:02;0.90;;;0.53;;
11008;SDS011;5557;51.670;7.788;2022-12-29T05:39:29;2.60;;;0.50;;
11008;SDS011;5557;51.670;7.788;2022-12-29T05:41:56;0.70;;;0.50;;
11008;SDS011;5557;51.670;7.788;2022-12-29T05:44:23;0.70;;;0.50;;
11008;SDS011;5557;51.670;7.788;2022-12-29T05:46:50;0.80;;;0.50;;
11008;SDS011;5557;51.670;7.788;2022-12-29T05:49:17;0.67;;;0.40;;
11008;SDS011;5557;51.670;7.788;2022-12-29T05:51:44;0.90;;;0.50;;
11008;SDS011;5557;51.670;7.788;2022-12-29T05:54:11;1.50;;;0.60;;
11008;SDS011;5557;51.670;7.788;2022-12-29T05:56:38;0.80;;;0.70;;
11008;SDS011;5557;51.670;7.788;2022-12-29T05:59:05;0.90;;;0.40;;
11008;SDS011;5557;51.670;7.788;2022-12-29T06:01:33;0.80;;;0.50;;
11008;SDS011;5557;51.670;7.788;2022-12-29T06:04:00;1.23;;;0.50;;
11008;SDS011;5557;51.670;7.788;2022-12-29T06:06:27;0.80;;;0.60;;
11008;SDS011;5557;51.670;7.788;2022-12-29T06:08:55;0.80;;;0.50;;
11008;SDS011;5557;51.670;7.788;2022-12-29T06:11:21;2.50;;;0.80;;
11008;SDS011;5557;51.670;7.788;2022-12-29T06:13:48;0.70;;;0.50;;
11008;SDS011;5557;51.670;7.788;2022-12-29T06:16:15;0.80;;;0.53;;
11008;SDS011;5557;51.670;7.788;2022-12-29T06:18:42;0.90;;;0.40;;
11008;SDS011;5557;51.670;7.788;2022-12-29T06:21:10;1.20;;;0.57;;
11008;SDS011;5557;51.670;7.788;2022-12-29T06:23:37;0.80;;;0.53;;
11008;SDS011;5557;51.670;7.788;2022-12-29T06:26:04;0.90;;;0.50;;
11008;SDS011;5557;51.670;7.788;2022-12-29T06:28:31;2.20;;;0.50;;
11008;SDS011;5557;51.670;7.788;2022-12-29T06:30:59;1.17;;;0.73;;
11008;SDS011;5557;51.670;7.788;2022-12-29T06:33:28;0.80;;;0.50;;
11008;SDS011;5557;51.670;7.788;2022-12-29T06:35:55;0.70;;;0.40;;
11008;SDS011;5557;51.670;7.788;2022-12-29T06:38:22;0.70;;;0.40;;
11008;SDS011;5557;51.670;7.788;2022-12-29T06:40:49;0.70;;;0.60;;
11008;SDS011;5557;51.670;7.788;2022-12-29T06:43:16;0.83;;;0.40;;
11008;SDS011;5557;51.670;7.788;2022-12-29T06:45:43;1.17;;;0.50;;
11008;SDS011;5557;51.670;7.788;2022-12-29T06:48:10;1.90;;;0.70;;
11008;SDS011;5557;51.670;7.788;2022-12-29T06:50:37;1.27;;;0.60;;
11008;SDS011;5557;51.670;7.788;2022-12-29T06:53:04;1.30;;;0.67;;
11008;SDS011;5557;51.670;7.788;2022-12-29T06:55:31;1.03;;;0.50;;
11008;SDS011;5557;51.670;7.788;2022-12-29T06:57:58;0.80;;;0.50;;
11008;SDS011;5557;51.670;7.788;2022-12-29T07:00:28;1.40;;;0.60;;
11008;SDS011;5557;51.670;7.788;2022-12-29T07:02:55;1.17;;;0.70;;
11008;SDS011;5557;51.670;7.788;2022-12-29T07:05:24;1.13;;;0.60;;
11008;SDS011;5557;51.670;7.788;2022-12-29T07:07:54;1.20;;;0.87;;
11008;SDS011;5557;51.670;7.788;2022-12-29T07:10:21;0.90;;;0.50;;
11008;SDS011;5557;51.670;7.788;2022-12-29T07:12:48;2.50;;;0.70;;
11008;SDS011;5557;51.670;7.788;2022-12-29T07:15:16;1.27;;;0.60;;
11008;SDS011;5557;51.670;7.788;2022-12-29T07:17:43;1.27;;;0.73;;
11008;SDS011;5557;51.670;7.788;2022-12-29T07:20:10;0.70;;;0.50;;
11008;SDS011;5557;51.670;7.788;2022-12-29T07:22:37;1.20;;;0.50;;
11008;SDS011;5557;51.670;7.788;2022-12-29T07:25:04;1.70;;;0.50;;
11008;SDS011;5557;51.670;7.788;2022-12-29T07:27:32;1.10;;;0.80;;
11008;SDS011;5557;51.670;7.788;2022-12-29T07:29:59;0.70;;;0.40;;
11008;SDS011;5557;51.670;7.788;2022-12-29T07:32:26;1.00;;;0.57;;
11008;SDS011;5557;51.670;7.788;2022-12-29T07:34:53;0.80;;;0.60;;
11008;SDS011;5557;51.670;7.788;2022-12-29T07:37:20;0.80;;;0.50;;
11008;SDS011;5557;51.670;7.788;2022-12-29T07:39:47;2.67;;;0.67;;
11008;SDS011;5557;51.670;7.788;2022-12-29T07:42:14;0.90;;;0.80;;
11008;SDS011;5557;51.670;7.788;2022-12-29T07:44:41;3.13;;;0.70;;
11008;SDS011;5557;51.670;7.788;2022-12-29T07:47:08;2.67;;;0.60;;
11008;SDS011;5557;51.670;7.788;2022-12-29T07:49:35;1.70;;;0.60;;
11008;SDS011;5557;51.670;7.788;2022-12-29T07:52:02;2.63;;;0.70;;
11008;SDS011;5557;51.670;7.788;2022-12-29T07:54:29;3.93;;;0.83;;
11008;SDS011;5557;51.670;7.788;2022-12-29T07:56:56;1.43;;;0.73;;
11008;SDS011;5557;51.670;7.788;2022-12-29T07:59:23;5.67;;;0.73;;
11008;SDS011;5557;51.670;7.788;2022-12-29T08:01:50;6.13;;;0.73;;
11008;SDS011;5557;51.670;7.788;2022-12-29T08:04:18;0.70;;;0.50;;
11008;SDS011;5557;51.670;7.788;2022-12-29T08:06:45;1.50;;;0.53;;
11008;SDS011;5557;51.670;7.788;2022-12-29T08:09:12;1.00;;;0.60;;
11008;SDS011;5557;51.670;7.788;2022-12-29T08:11:47;2.70;;;0.70;;
11008;SDS011;5557;51.670;7.788;2022-12-29T08:14:14;1.67;;;0.40;;
11008;SDS011;5557;51.670;7.788;2022-12-29T08:16:41;1.67;;;0.90;;
11008;SDS011;5557;51.670;7.788;2022-12-29T08:19:10;4.50;;;0.67;;
11008;SDS011;5557;51.670;7.788;2022-12-29T08:21:38;1.63;;;0.50;;
11008;SDS011;5557;51.670;7.788;2022-12-29T08:24:05;2.87;;;1.03;;
11008;SDS011;5557;51.670;7.788;2022-12-29T08:26:32;1.70;;;0.70;;
11008;SDS011;5557;51.670;7.788;2022-12-29T08:28:59;2.80;;;0.70;;
11008;SDS011;5557;51.670;7.788;2022-12-29T08:31:26;2.50;;;0.60;;
11008;SDS011;5557;51.670;7.788;2022-12-29T08:33:54;2.30;;;0.80;;
11008;SDS011;5557;51.670;7.788;2022-12-29T08:36:21;1.43;;;0.80;;
11008;SDS011;5557;51.670;7.788;2022-12-29T08:38:49;2.17;;;0.70;;
11008;SDS011;5557;51.670;7.788;2022-12-29T08:41:16;2.83;;;0.90;;
11008;SDS011;5557;51.670;7.788;2022-12-29T08:43:45;0.90;;;0.70;;
11008;SDS011;5557;51.670;7.788;2022-12-29T08:46:16;6.17;;;1.00;;
11008;SDS011;5557;51.670;7.788;2022-12-29T08:48:43;1.57;;;0.63;;
11008;SDS011;5557;51.670;7.788;2022-12-29T08:51:10;1.67;;;0.80;;
11008;SDS011;5557;51.670;7.788;2022-12-29T08:53:37;4.80;;;0.80;;
11008;SDS011;5557;51.670;7.788;2022-12-29T08:56:05;1.33;;;0.60;;
11008;SDS011;5557;51.670;7.788;2022-12-29T08:58:32;1.40;;;0.60;;
11008;SDS011;5557;51.670;7.788;2022-12-29T09:00:59;2.37;;;0.80;;
11008;SDS011;5557;51.670;7.788;2022-12-29T09:03:26;1.10;;;0.83;;
11008;SDS011;5557;51.670;7.788;2022-12-29T09:06:14;2.70;;;0.83;;
11008;SDS011;5557;51.670;7.788;2022-12-29T09:08:43;2.60;;;0.87;;
11008;SDS011;5557;51.670;7.788;2022-12-29T09:11:18;5.00;;;1.57;;
11008;SDS011;5557;51.670;7.788;2022-12-29T09:13:47;5.03;;;0.97;;
11008;SDS011;5557;51.670;7.788;2022-12-29T09:16:14;7.03;;;1.07;;
11008;SDS011;5557;51.670;7.788;2022-12-29T09:18:43;3.43;;;0.60;;
11008;SDS011;5557;51.670;7.788;2022-12-29T09:21:11;2.23;;;0.70;;
11008;SDS011;5557;51.670;7.788;2022-12-29T09:23:38;4.27;;;0.80;;
11008;SDS011;5557;51.670;7.788;2022-12-29T09:26:06;4.10;;;0.93;;
11008;SDS011;5557;51.670;7.788;2022-12-29T09:28:34;1.23;;;0.63;;
11008;SDS011;5557;51.670;7.788;2022-12-29T09:31:01;1.67;;;0.70;;
11008;SDS011;5557;51.670;7.788;2022-12-29T09:33:31;5.30;;;1.30;;
11008;SDS011;5557;51.670;7.788;2022-12-29T09:36:01;5.67;;;1.07;;
11008;SDS011;5557;51.670;7.788;2022-12-29T09:38:28;5.37;;;1.10;;
11008;SDS011;5557;51.670;7.788;2022-12-29T09:41:11;4.97;;;1.03;;
11008;SDS011;5557;51.670;7.788;2022-12-29T09:44:07;1.50;;;0.80;;
11008;SDS011;5557;51.670;7.788;2022-12-29T09:46:54;2.63;;;0.80;;
11008;SDS011;5557;51.670;7.788;2022-12-29T09:49:30;2.50;;;0.80;;
11008;SDS011;5557;51.670;7.788;2022-12-29T09:52:11;0.97;;;0.70;;
11008;SDS011;5557;51.670;7.788;2022-12-29T09:54:56;2.90;;;0.70;;
11008;SDS011;5557;51.670;7.788;2022-12-29T09:57:47;4.17;;;0.90;;
11008;SDS011;5557;51.670;7.788;2022-12-29T10:00:28;3.53;;;0.90;;
11008;SDS011;5557;51.670;7.788;2022-12-29T10:03:17;4.00;;;0.90;;
11008;SDS011;5557;51.670;7.788;2022-12-29T10:05:48;4.03;;;0.90;;
11008;SDS011;5557;51.670;7.788;2022-12-29T10:16:13;7.07;;;0.97;;
11008;SDS011;5557;51.670;7.788;2022-12-29T10:19:24;3.87;;;1.10;;
11008;SDS011;5557;51.670;7.788;2022-12-29T10:20:48;2.80;;;0.70;;
11008;SDS011;5557;51.670;7.788;2022-12-29T10:23:40;1.90;;;0.63;;
11008;SDS011;5557;51.670;7.788;2022-12-29T10:26:14;3.67;;;0.90;;
11008;SDS011;5557;51.670;7.788;2022-12-29T10:28:47;2.77;;;0.93;;
11008;SDS011;5557;51.670;7.788;2022-12-29T10:31:22;3.40;;;1.00;;
11008;SDS011;5557;51.670;7.788;2022-12-29T10:34:00;3.73;;;1.37;;
11008;SDS011;5557;51.670;7.788;2022-12-29T10:36:38;1.70;;;1.00;;
11008;SDS011;5557;51.670;7.788;2022-12-29T10:39:19;4.83;;;1.07;;
11008;SDS011;5557;51.670;7.788;2022-12-29T10:44:37;2.90;;;1.13;;
11008;SDS011;5557;51.670;7.788;2022-12-29T10:47:06;6.63;;;1.27;;
11008;SDS011;5557;51.670;7.788;2022-12-29T10:49:39;2.90;;;1.10;;
11008;SDS011;5557;51.670;7.788;2022-12-29T10:52:09;4.10;;;1.03;;
11008;SDS011;5557;51.670;7.788;2022-12-29T10:57:06;1.97;;;0.70;;
11008;SDS011;5557;51.670;7.788;2022-12-29T10:59:37;4.30;;;1.43;;
11008;SDS011;5557;51.670;7.788;2022-12-29T11:05:18;5.77;;;0.60;;
11008;SDS011;5557;51.670;7.788;2022-12-29T11:08:10;7.40;;;1.37;;
11008;SDS011;5557;51.670;7.788;2022-12-29T11:10:41;4.47;;;0.80;;
11008;SDS011;5557;51.670;7.788;2022-12-29T11:13:17;1.87;;;0.70;;
11008;SDS011;5557;51.670;7.788;2022-12-29T11:15:49;5.90;;;1.40;;
11008;SDS011;5557;51.670;7.788;2022-12-29T11:18:23;4.23;;;1.00;;
11008;SDS011;5557;51.670;7.788;2022-12-29T11:20:59;1.63;;;1.00;;
11008;SDS011;5557;51.670;7.788;2022-12-29T11:23:40;3.70;;;0.80;;
11008;SDS011;5557;51.670;7.788;2022-12-29T11:26:18;1.47;;;1.10;;
11008;SDS011;5557;51.670;7.788;2022-12-29T11:32:10;3.30;;;1.00;;
11008;SDS011;5557;51.670;7.788;2022-12-29T11:35:04;6.10;;;1.13;;
11008;SDS011;5557;51.670;7.788;2022-12-29T11:37:32;2.87;;;0.93;;
11008;SDS011;5557;51.670;7.788;2022-12-29T11:40:18;2.50;;;0.80;;
11008;SDS011;5557;51.670;7.788;2022-12-29T11:43:02;4.90;;;1.17;;
11008;SDS011;5557;51.670;7.788;2022-12-29T11:45:31;2.77;;;0.80;;
11008;SDS011;5557;51.670;7.788;2022-12-29T11:48:08;7.10;;;1.20;;
11008;SDS011;5557;51.670;7.788;2022-12-29T11:50:43;3.43;;;0.90;;
11008;SDS011;5557;51.670;7.788;2022-12-29T11:53:20;1.90;;;0.80;;
11008;SDS011;5557;51.670;7.788;2022-12-29T11:56:00;7.93;;;1.10;;
11008;SDS011;5557;51.670;7.788;2022-12-29T11:58:31;6.10;;;1.70;;
11008;SDS011;5557;51.670;7.788;2022-12-29T12:01:01;6.60;;;1.10;;
11008;SDS011;5557;51.670;7.788;2022-12-29T12:03:56;1.50;;;0.77;;
11008;SDS011;5557;51.670;7.788;2022-12-29T12:06:28;4.33;;;1.53;;
11008;SDS011;5557;51.670;7.788;2022-12-29T12:09:06;23.53;;;1.40;;
11008;SDS011;5557;51.670;7.788;2022-12-29T12:11:41;2.80;;;1.27;;
11008;SDS011;5557;51.670;7.788;2022-12-29T12:14:14;3.10;;;0.73;;
11008;SDS011;5557;51.670;7.788;2022-12-29T12:16:47;6.30;;;0.73;;
11008;SDS011;5557;51.670;7.788;2022-12-29T12:19:38;7.70;;;1.10;;
11008;SDS011;5557;51.670;7.788;2022-12-29T12:22:35;2.03;;;0.60;;
11008;SDS011;5557;51.670;7.788;2022-12-29T12:25:30;1.57;;;0.60;;
11008;SDS011;5557;51.670;7.788;2022-12-29T12:28:12;3.33;;;1.23;;
11008;SDS011;5557;51.670;7.788;2022-12-29T12:30:48;5.90;;;0.87;;
11008;SDS011;5557;51.670;7.788;2022-12-29T12:33:38;2.67;;;0.80;;
11008;SDS011;5557;51.670;7.788;2022-12-29T12:36:20;6.83;;;2.13;;
11008;SDS011;5557;51.670;7.788;2022-12-29T12:39:11;1.77;;;1.00;;
11008;SDS011;5557;51.670;7.788;2022-12-29T12:44:24;9.73;;;1.53;;
11008;SDS011;5557;51.670;7.788;2022-12-29T12:47:12;5.17;;;1.13;;
11008;SDS011;5557;51.670;7.788;2022-12-29T12:50:14;2.50;;;0.70;;
11008;SDS011;5557;51.670;7.788;2022-12-29T12:53:13;4.13;;;1.13;;
11008;SDS011;5557;51.670;7.788;2022-12-29T12:56:27;4.80;;;1.00;;
11008;SDS011;5557;51.670;7.788;2022-12-29T13:02:45;5.43;;;0.87;;
11008;SDS011;5557;51.670;7.788;2022-12-29T13:21:17;4.60;;;1.53;;
11008;SDS011;5557;51.670;7.788;2022-12-29T13:31:56;2.43;;;1.07;;
11008;SDS011;5557;51.670;7.788;2022-12-29T13:34:49;4.20;;;2.13;;
11008;SDS011;5557;51.670;7.788;2022-12-29T13:37:45;2.70;;;1.90;;
11008;SDS011;5557;51.670;7.788;2022-12-29T13:40:18;9.10;;;2.87;;
11008;SDS011;5557;51.670;7.788;2022-12-29T13:43:32;5.70;;;1.20;;
11008;SDS011;5557;51.670;7.788;2022-12-29T13:53:29;2.20;;;1.33;;
11008;SDS011;5557;51.670;7.788;2022-12-29T14:00:18;7.87;;;1.17;;
11008;SDS011;5557;51.670;7.788;2022-12-29T14:06:11;2.93;;;1.90;;
11008;SDS011;5557;51.670;7.788;2022-12-29T14:08:49;5.17;;;1.10;;
11008;SDS011;5557;51.670;7.788;2022-12-29T14:11:34;3.20;;;0.80;;
11008;SDS011;5557;51.670;7.788;2022-12-29T14:14:18;5.47;;;1.10;;
11008;SDS011;5557;51.670;7.788;2022-12-29T14:16:48;9.00;;;0.97;;
11008;SDS011;5557;51.670;7.788;2022-12-29T14:21:51;6.20;;;1.40;;
11008;SDS011;5557;51.670;7.788;2022-12-29T14:24:39;7.17;;;0.90;;
11008;SDS011;5557;51.670;7.788;2022-12-29T14:33:15;3.83;;;1.20;;
11008;SDS011;5557;51.670;7.788;2022-12-29T14:35:46;7.80;;;2.03;;
11008;SDS011;5557;51.670;7.788;2022-12-29T14:38:20;4.93;;;0.83;;
11008;SDS011;5557;51.670;7.788;2022-12-29T14:40:50;2.67;;;1.10;;
11008;SDS011;5557;51.670;7.788;2022-12-29T14:43:19;6.00;;;1.53;;
11008;SDS011;5557;51.670;7.788;2022-12-29T14:45:54;3.00;;;0.90;;
11008;SDS011;5557;51.670;7.788;2022-12-29T14:48:29;3.53;;;1.33;;
11008;SDS011;5557;51.670;7.788;2022-12-29T14:51:18;15.97;;;1.20;;
11008;SDS011;5557;51.670;7.788;2022-12-29T14:53:59;6.17;;;1.10;;
11008;SDS011;5557;51.670;7.788;2022-12-29T14:56:51;11.20;;;1.23;;
11008;SDS011;5557;51.670;7.788;2022-12-29T14:59:20;3.23;;;1.27;;
11008;SDS011;5557;51.670;7.788;2022-12-29T15:01:47;6.93;;;1.33;;
11008;SDS011;5557;51.670;7.788;2022-12-29T15:04:20;4.20;;;0.90;;
11008;SDS011;5557;51.670;7.788;2022-12-29T15:06:56;8.13;;;1.60;;
11008;SDS011;5557;51.670;7.788;2022-12-29T15:09:35;4.00;;;1.43;;
11008;SDS011;5557;51.670;7.788;2022-12-29T15:12:19;5.20;;;1.60;;
11008;SDS011;5557;51.670;7.788;2022-12-29T15:15:38;5.70;;;1.20;;
11008;SDS011;5557;51.670;7.788;2022-12-29T15:21:16;7.00;;;1.50;;
11008;SDS011;5557;51.670;7.788;2022-12-29T15:24:05;3.73;;;1.03;;
11008;SDS011;5557;51.670;7.788;2022-12-29T15:26:37;6.03;;;1.20;;
11008;SDS011;5557;51.670;7.788;2022-12-29T15:29:27;8.20;;;1.30;;
11008;SDS011;5557;51.670;7.788;2022-12-29T15:32:25;5.53;;;1.40;;
11008;SDS011;5557;51.670;7.788;2022-12-29T15:34:56;2.23;;;1.00;;
11008;SDS011;5557;51.670;7.788;2022-12-29T15:37:33;1.40;;;0.87;;
11008;SDS011;5557;51.670;7.788;2022-12-29T15:40:04;5.80;;;0.93;;
11008;SDS011;5557;51.670;7.788;2022-12-29T15:45:26;1.97;;;0.90;;
11008;SDS011;5557;51.670;7.788;2022-12-29T15:47:58;1.73;;;1.20;;
11008;SDS011;5557;51.670;7.788;2022-12-29T15:50:30;3.33;;;0.80;;
11008;SDS011;5557;51.670;7.788;2022-12-29T15:53:00;9.23;;;1.40;;
11008;SDS011;5557;51.670;7.788;2022-12-29T15:55:35;4.90;;;1.10;;
11008;SDS011;5557;51.670;7.788;2022-12-29T15:58:05;3.80;;;1.10;;
11008;SDS011;5557;51.670;7.788;2022-12-29T16:00:46;1.93;;;0.93;;
11008;SDS011;5557;51.670;7.788;2022-12-29T16:03:33;5.17;;;1.07;;
11008;SDS011;5557;51.670;7.788;2022-12-29T16:06:07;3.20;;;0.80;;
11008;SDS011;5557;51.670;7.788;2022-12-29T16:08:37;2.13;;;1.17;;
11008;SDS011;5557;51.670;7.788;2022-12-29T16:11:22;1.33;;;1.00;;
11008;SDS011;5557;51.670;7.788;2022-12-29T16:13:52;2.27;;;0.90;;
11008;SDS011;5557;51.670;7.788;2022-12-29T16:16:35;4.23;;;1.70;;
11008;SDS011;5557;51.670;7.788;2022-12-29T16:21:59;1.30;;;0.90;;
11008;SDS011;5557;51.670;7.788;2022-12-29T16:24:32;2.70;;;1.67;;
11008;SDS011;5557;51.670;7.788;2022-12-29T16:27:06;2.50;;;1.17;;
11008;SDS011;5557;51.670;7.788;2022-12-29T16:29:35;1.63;;;0.93;;
11008;SDS011;5557;51.670;7.788;2022-12-29T16:32:03;5.77;;;2.03;;
11008;SDS011;5557;51.670;7.788;2022-12-29T16:34:53;5.00;;;2.30;;
11008;SDS011;5557;51.670;7.788;2022-12-29T16:40:57;1.73;;;1.00;;
11008;SDS011;5557;51.670;7.788;2022-12-29T16:43:29;3.67;;;1.10;;
11008;SDS011;5557;51.670;7.788;2022-12-29T16:46:11;2.60;;;1.10;;
11008;SDS011;5557;51.670;7.788;2022-12-29T16:48:46;4.60;;;1.00;;
11008;SDS011;5557;51.670;7.788;2022-12-29T16:51:29;0.90;;;0.80;;
11008;SDS011;5557;51.670;7.788;2022-12-29T16:53:58;2.33;;;1.00;;
11008;SDS011;5557;51.670;7.788;2022-12-29T16:56:26;3.30;;;1.17;;
11008;SDS011;5557;51.670;7.788;2022-12-29T16:59:17;1.87;;;1.30;;
11008;SDS011;5557;51.670;7.788;2022-12-29T17:02:16;4.00;;;1.27;;
11008;SDS011;5557;51.670;7.788;2022-12-29T17:04:47;3.53;;;0.90;;
11008;SDS011;5557;51.670;7.788;2022-12-29T17:07:19;3.40;;;1.10;;
11008;SDS011;5557;51.670;7.788;2022-12-29T17:09:48;8.03;;;1.13;;
11008;SDS011;5557;51.670;7.788;2022-12-29T17:12:17;2.40;;;0.83;;
11008;SDS011;5557;51.670;7.788;2022-12-29T17:17:42;1.87;;;0.90;;
11008;SDS011;5557;51.670;7.788;2022-12-29T17:20:15;2.30;;;0.90;;
11008;SDS011;5557;51.670;7.788;2022-12-29T17:22:53;5.43;;;1.47;;
11008;SDS011;5557;51.670;7.788;2022-12-29T17:25:21;3.33;;;1.27;;
11008;SDS011;5557;51.670;7.788;2022-12-29T17:28:01;5.27;;;1.30;;
11008;SDS011;5557;51.670;7.788;2022-12-29T17:30:48;3.20;;;1.10;;
11008;SDS011;5557;51.670;7.788;2022-12-29T17:33:19;1.67;;;1.33;;
11008;SDS011;5557;51.670;7.788;2022-12-29T17:35:46;4.83;;;1.43;;
11008;SDS011;5557;51.670;7.788;2022-12-29T17:38:27;4.90;;;2.50;;